Time;durP1;ratioP1;P1;durP2;ratioP2;P2;SDS_P1;SDS_P2;PMS_P1;PMS_P2;Temp;Humidity;BMP_temperature;BMP_pressure;BME280_temperature;BME280_humidity;BME280_pressure;Samples;Min_cycle;Max_cycle;Signal;HPM_P1;HPM_P2
2022/02/11 00:02:18;;;;;;;14.20;8.50;;;5.80;99.90;;;;;;4439788;32;20182;-67
2022/02/11 00:07:17;;;;;;;9.93;7.03;;;5.80;99.90;;;;;;4439807;32;20244;-67
2022/02/11 00:09:44;;;;;;;11.10;7.50;;;5.70;99.90;;;;;;4439610;32;20182;-67
2022/02/11 00:12:11;;;;;;;10.30;6.23;;;5.70;99.90;;;;;;4441632;32;20577;-67
2022/02/11 00:14:50;;;;;;;9.23;5.87;;;5.60;99.90;;;;;;4445259;32;20447;-67
2022/02/11 00:17:18;;;;;;;8.53;5.60;;;5.60;99.90;;;;;;4440352;32;20241;-68
2022/02/11 00:19:45;;;;;;;10.17;5.93;;;5.60;99.90;;;;;;4440183;32;20179;-67
2022/02/11 00:22:12;;;;;;;8.57;5.10;;;5.60;99.90;;;;;;4440536;32;20185;-67
2022/02/11 00:24:41;;;;;;;6.27;4.03;;;5.60;99.90;;;;;;4438902;32;20278;-67
2022/02/11 00:35:20;;;;;;;4.47;2.90;;;5.30;99.90;;;;;;4440334;32;20178;-66
2022/02/11 00:37:47;;;;;;;3.40;2.67;;;5.20;99.90;;;;;;4439911;32;20222;-67
2022/02/11 00:41:07;;;;;;;3.83;2.70;;;5.10;99.90;;;;;;4439069;32;20166;-67
2022/02/11 00:46:18;;;;;;;4.13;2.70;;;5.10;99.90;;;;;;4440637;32;20241;-67
2022/02/11 01:02:22;;;;;;;5.13;3.10;;;5.10;99.90;;;;;;4439840;32;20151;-68
2022/02/11 01:04:49;;;;;;;4.83;2.90;;;5.10;99.90;;;;;;4438518;32;20206;-68
2022/02/11 01:07:16;;;;;;;6.33;3.10;;;5.10;99.90;;;;;;4439808;32;20235;-68
2022/02/11 01:09:43;;;;;;;4.13;2.60;;;5.10;99.90;;;;;;4438031;32;20182;-68
2022/02/11 01:12:12;;;;;;;4.20;2.83;;;5.00;99.90;;;;;;4438434;32;20237;-67
2022/02/11 01:14:47;;;;;;;4.40;2.83;;;5.00;99.90;;;;;;4438421;32;20419;-67
2022/02/11 01:17:21;;;;;;;4.27;2.77;;;5.00;99.90;;;;;;4438540;32;20193;-67
2022/02/11 01:19:56;;;;;;;4.80;3.10;;;4.90;99.90;;;;;;4439739;32;20216;-68
2022/02/11 01:28:19;;;;;;;5.43;3.20;;;4.90;99.90;;;;;;4439464;32;20235;-68
2022/02/11 01:44:03;;;;;;;5.70;3.47;;;4.80;99.90;;;;;;4437860;32;20182;-68
2022/02/11 01:52:30;;;;;;;5.77;3.97;;;4.80;99.90;;;;;;4438316;32;20223;-67
2022/02/11 02:00:51;;;;;;;7.87;4.40;;;4.80;99.90;;;;;;4437631;32;20536;-68
2022/02/11 02:14:35;;;;;;;8.17;5.30;;;5.00;99.90;;;;;;4430378;32;20195;-68
2022/02/11 02:27:43;;;;;;;11.73;7.23;;;4.90;99.90;;;;;;4440404;32;20197;-68
2022/02/11 02:57:50;;;;;;;10.40;6.90;;;4.80;99.90;;;;;;4440572;32;20408;-69
2022/02/11 03:17:31;;;;;;;11.63;7.20;;;4.30;99.90;;;;;;4440307;32;20238;-69
2022/02/11 03:31:40;;;;;;;11.03;7.17;;;4.10;99.90;;;;;;4439627;32;20178;-69
2022/02/11 03:58:12;;;;;;;13.20;6.40;;;4.00;99.90;;;;;;4411302;32;20220;-69
2022/02/11 04:55:22;;;;;;;19.63;9.80;;;3.70;99.90;;;;;;4438467;32;20227;-68
2022/02/11 05:00:38;;;;;;;17.83;9.53;;;3.80;99.90;;;;;;4438208;32;20212;-68
2022/02/11 05:03:06;;;;;;;15.83;9.43;;;3.70;99.90;;;;;;4439098;32;20205;-68
2022/02/11 05:05:49;;;;;;;19.50;9.60;;;3.70;99.90;;;;;;4455449;32;20147;-68
2022/02/11 05:08:24;;;;;;;20.67;9.50;;;3.70;99.90;;;;;;4442063;32;20383;-68
2022/02/11 05:10:56;;;;;;;16.90;8.93;;;3.70;99.90;;;;;;4440858;32;20414;-68
2022/02/11 05:13:24;;;;;;;17.73;8.57;;;3.70;99.90;;;;;;4441102;32;20227;-68
2022/02/11 05:15:51;;;;;;;19.37;9.13;;;3.70;99.90;;;;;;4441001;32;20186;-68
2022/02/11 05:18:18;;;;;;;17.03;8.50;;;3.60;99.90;;;;;;4441702;32;20404;-68
2022/02/11 05:20:45;;;;;;;17.50;8.17;;;3.60;99.90;;;;;;4440583;32;20205;-67
2022/02/11 05:23:15;;;;;;;18.50;9.07;;;3.70;99.90;;;;;;4442115;32;20170;-67
2022/02/11 05:25:42;;;;;;;17.97;8.97;;;3.60;99.90;;;;;;4454767;32;20170;-67
2022/02/11 05:28:13;;;;;;;16.00;9.23;;;3.60;99.90;;;;;;4440934;32;20224;-68
2022/02/11 05:30:41;;;;;;;18.37;8.80;;;3.60;99.90;;;;;;4441566;32;20216;-68
2022/02/11 05:33:09;;;;;;;18.63;9.50;;;3.60;99.90;;;;;;4440492;32;20178;-68
2022/02/11 05:35:38;;;;;;;18.77;9.07;;;3.60;99.90;;;;;;4442064;32;20171;-68
2022/02/11 05:38:05;;;;;;;17.80;8.97;;;3.70;99.90;;;;;;4441049;32;20225;-68
2022/02/11 05:40:32;;;;;;;15.77;8.53;;;3.60;99.90;;;;;;4442434;32;20581;-68
2022/02/11 05:42:59;;;;;;;16.23;8.20;;;3.60;99.90;;;;;;4440887;32;20200;-68
2022/02/11 05:45:26;;;;;;;15.10;8.63;;;3.60;99.90;;;;;;4440446;32;20193;-68
2022/02/11 05:47:53;;;;;;;18.27;8.30;;;3.60;99.90;;;;;;4440031;32;20507;-68
2022/02/11 05:50:20;;;;;;;16.00;8.20;;;3.60;99.90;;;;;;4440650;32;20182;-68
2022/02/11 05:53:03;;;;;;;14.80;8.60;;;3.60;99.90;;;;;;4442510;32;20212;-68
2022/02/11 05:55:30;;;;;;;16.20;8.07;;;3.60;99.90;;;;;;4441291;32;20184;-69
2022/02/11 05:57:57;;;;;;;14.63;7.77;;;3.60;99.90;;;;;;4455645;32;20157;-68
2022/02/11 06:00:23;;;;;;;15.17;7.80;;;3.70;99.90;;;;;;4442099;32;20182;-68
2022/02/11 06:02:50;;;;;;;14.03;7.27;;;3.60;99.90;;;;;;4440872;32;20182;-68
2022/02/11 06:05:19;;;;;;;15.87;8.00;;;3.60;99.90;;;;;;4437488;32;20197;-68
2022/02/11 06:07:46;;;;;;;16.17;8.00;;;3.60;99.90;;;;;;4439326;32;20532;-67
2022/02/11 06:10:13;;;;;;;14.93;7.83;;;3.60;99.90;;;;;;4440245;32;20158;-69
2022/02/11 06:12:40;;;;;;;15.47;7.70;;;3.60;99.90;;;;;;4438208;32;20228;-68
2022/02/11 06:15:08;;;;;;;16.77;8.00;;;3.60;99.90;;;;;;4439276;32;20446;-68
2022/02/11 06:17:35;;;;;;;16.43;7.70;;;3.60;99.90;;;;;;4440248;32;20169;-68
2022/02/11 06:20:02;;;;;;;13.93;7.40;;;3.60;99.90;;;;;;4439496;32;20201;-68
2022/02/11 06:22:30;;;;;;;15.83;7.40;;;3.70;99.90;;;;;;4438125;32;20449;-68
2022/02/11 06:24:56;;;;;;;17.43;7.93;;;3.70;99.90;;;;;;4437667;32;20190;-69
2022/02/11 06:27:25;;;;;;;15.83;8.30;;;3.70;99.90;;;;;;4439382;32;20194;-68
2022/02/11 06:29:53;;;;;;;14.77;7.80;;;3.80;99.90;;;;;;4439951;32;20170;-68
2022/02/11 06:32:20;;;;;;;14.60;7.90;;;3.80;99.90;;;;;;4437807;32;20244;-68
2022/02/11 06:34:47;;;;;;;15.87;8.40;;;3.90;99.90;;;;;;4438568;32;20178;-67
2022/02/11 06:37:14;;;;;;;14.17;7.50;;;3.90;99.90;;;;;;4426923;32;20170;-67
2022/02/11 06:39:41;;;;;;;16.20;8.40;;;4.00;99.90;;;;;;4439420;32;20204;-67
2022/02/11 06:42:08;;;;;;;13.83;7.87;;;4.00;99.90;;;;;;4438737;32;20185;-67
2022/02/11 06:44:34;;;;;;;16.20;8.10;;;4.00;99.90;;;;;;4438952;32;20205;-67
2022/02/11 06:47:01;;;;;;;14.83;8.00;;;4.00;99.90;;;;;;4438289;32;20201;-67
2022/02/11 06:49:31;;;;;;;14.10;7.37;;;4.10;99.90;;;;;;4437170;32;20198;-67
2022/02/11 06:51:58;;;;;;;14.57;8.40;;;4.00;99.90;;;;;;4438786;32;20529;-67
2022/02/11 06:54:25;;;;;;;14.57;8.33;;;4.00;99.90;;;;;;4444633;32;20163;-67
2022/02/11 06:56:52;;;;;;;15.60;8.10;;;4.10;99.90;;;;;;4438041;32;20263;-67
2022/02/11 06:59:19;;;;;;;12.33;7.67;;;4.10;99.90;;;;;;4438828;32;20182;-67
2022/02/11 07:01:47;;;;;;;14.07;7.70;;;4.10;99.90;;;;;;4441343;32;20198;-67
2022/02/11 07:04:16;;;;;;;15.30;8.90;;;4.10;99.90;;;;;;4440559;32;20186;-67
2022/02/11 07:06:43;;;;;;;12.87;7.87;;;4.10;99.90;;;;;;4442145;32;20178;-67
2022/02/11 07:09:10;;;;;;;15.80;8.60;;;4.20;99.90;;;;;;4440695;32;20247;-68
2022/02/11 07:11:37;;;;;;;16.43;8.20;;;4.20;99.90;;;;;;4441363;32;20193;-68
2022/02/11 07:14:05;;;;;;;16.90;8.47;;;4.20;99.90;;;;;;4441175;32;20169;-67
2022/02/11 07:16:32;;;;;;;14.30;8.30;;;4.30;99.90;;;;;;4440209;32;20193;-67
2022/02/11 07:18:58;;;;;;;16.07;8.40;;;4.40;99.90;;;;;;4440546;32;20392;-68
2022/02/11 07:21:25;;;;;;;16.37;8.30;;;4.40;99.90;;;;;;4442095;32;20170;-67
2022/02/11 07:23:52;;;;;;;14.63;8.10;;;4.40;99.90;;;;;;4440643;32;20230;-67
2022/02/11 07:26:19;;;;;;;16.17;8.73;;;4.40;99.90;;;;;;4441199;32;20170;-68
2022/02/11 07:28:46;;;;;;;15.13;8.83;;;4.40;99.90;;;;;;4440313;32;20212;-68
2022/02/11 07:31:13;;;;;;;15.40;9.10;;;4.30;99.90;;;;;;4441042;32;20210;-68
2022/02/11 07:33:39;;;;;;;16.73;8.77;;;4.40;99.90;;;;;;4440636;32;20178;-68
2022/02/11 07:36:06;;;;;;;15.60;8.70;;;4.40;99.90;;;;;;4439327;32;20217;-68
2022/02/11 07:38:33;;;;;;;17.80;8.93;;;4.40;99.90;;;;;;4441577;32;20178;-68
2022/02/11 07:41:00;;;;;;;16.50;8.70;;;4.50;99.90;;;;;;4440329;32;20194;-68
2022/02/11 07:43:27;;;;;;;16.40;9.07;;;4.60;99.90;;;;;;4442318;32;20146;-68
2022/02/11 07:46:07;;;;;;;18.60;8.97;;;4.60;99.90;;;;;;4440238;32;20442;-68
2022/02/11 07:48:35;;;;;;;14.83;8.80;;;4.60;99.90;;;;;;4441128;32;20174;-68
2022/02/11 07:51:02;;;;;;;18.60;9.23;;;4.70;99.90;;;;;;4439552;32;20209;-68
2022/02/11 07:53:29;;;;;;;17.47;9.40;;;4.70;99.90;;;;;;4440010;32;20189;-68
2022/02/11 07:55:56;;;;;;;14.10;8.33;;;4.70;99.90;;;;;;4441534;32;20159;-68
2022/02/11 07:58:26;;;;;;;17.87;8.67;;;4.80;99.90;;;;;;4441006;32;20251;-68
2022/02/11 08:00:57;;;;;;;18.33;8.33;;;4.80;99.90;;;;;;4439091;32;20209;-68
2022/02/11 08:03:25;;;;;;;14.23;8.40;;;4.80;99.90;;;;;;4439203;32;20486;-69
2022/02/11 08:05:54;;;;;;;14.77;8.50;;;4.80;99.90;;;;;;4440228;32;20189;-69
2022/02/11 08:08:27;;;;;;;16.97;8.73;;;4.90;99.90;;;;;;4439852;32;20184;-69
2022/02/11 08:10:56;;;;;;;16.27;8.97;;;4.90;99.90;;;;;;4441376;32;20136;-69
2022/02/11 08:13:24;;;;;;;18.23;9.80;;;4.80;99.90;;;;;;4439595;32;20220;-69
2022/02/11 08:15:51;;;;;;;17.80;9.60;;;4.80;99.90;;;;;;4440705;32;20186;-69
2022/02/11 08:18:18;;;;;;;15.23;9.20;;;4.70;99.90;;;;;;4439100;32;20247;-69
2022/02/11 08:21:05;;;;;;;18.30;9.37;;;4.70;99.90;;;;;;4441523;32;20195;-69
2022/02/11 08:23:32;;;;;;;16.80;9.13;;;4.70;99.90;;;;;;4440462;32;20209;-69
2022/02/11 08:25:59;;;;;;;17.23;9.60;;;4.70;99.90;;;;;;4438892;32;20170;-69
2022/02/11 08:28:26;;;;;;;19.63;9.80;;;4.60;99.90;;;;;;4440434;32;20198;-68
2022/02/11 08:30:53;;;;;;;21.77;10.13;;;4.70;99.90;;;;;;4440265;32;20213;-69
2022/02/11 08:33:24;;;;;;;16.37;9.60;;;4.70;99.90;;;;;;4438922;32;20196;-68
2022/02/11 08:35:53;;;;;;;16.73;9.60;;;4.60;99.90;;;;;;4438714;32;20239;-68
2022/02/11 08:38:21;;;;;;;19.50;10.43;;;4.60;99.90;;;;;;4438136;32;20626;-69
2022/02/11 08:40:48;;;;;;;18.17;10.27;;;4.60;99.90;;;;;;4439836;32;20201;-68
2022/02/11 08:43:16;;;;;;;22.40;10.43;;;4.70;99.90;;;;;;4439294;32;20174;-69
2022/02/11 08:45:43;;;;;;;19.63;11.30;;;4.70;99.90;;;;;;4439973;32;20228;-69
2022/02/11 08:48:12;;;;;;;20.17;11.10;;;4.80;99.90;;;;;;4443148;32;20192;-68
2022/02/11 08:50:41;;;;;;;19.07;11.23;;;4.80;99.90;;;;;;4455946;32;20191;-68
2022/02/11 08:53:30;;;;;;;18.33;10.73;;;4.80;99.90;;;;;;4454048;32;20227;-68
2022/02/11 08:55:57;;;;;;;19.63;10.87;;;4.90;99.90;;;;;;4455481;32;20451;-67
2022/02/11 08:58:25;;;;;;;20.70;11.33;;;4.90;99.90;;;;;;4454411;32;20177;-69
2022/02/11 09:00:52;;;;;;;20.33;10.87;;;4.90;99.90;;;;;;4454746;32;20262;-69
2022/02/11 09:03:25;;;;;;;18.50;10.30;;;4.90;99.90;;;;;;4453879;32;20226;-69
2022/02/11 09:05:52;;;;;;;18.20;10.13;;;4.90;99.90;;;;;;4454199;32;20606;-69
2022/02/11 09:08:19;;;;;;;18.57;10.23;;;4.80;99.90;;;;;;4454126;32;20231;-69
2022/02/11 09:10:48;;;;;;;18.00;10.33;;;4.80;99.90;;;;;;4456039;32;20173;-69
2022/02/11 09:13:15;;;;;;;17.27;10.00;;;4.70;99.90;;;;;;4455076;32;20226;-69
2022/02/11 09:15:43;;;;;;;17.10;9.17;;;4.70;99.90;;;;;;4453470;32;20189;-69
2022/02/11 09:18:10;;;;;;;15.70;9.67;;;4.60;99.90;;;;;;4453343;32;20229;-68
2022/02/11 09:20:37;;;;;;;19.40;10.40;;;4.50;99.90;;;;;;4454921;32;20163;-69
2022/02/11 09:23:04;;;;;;;18.20;9.87;;;4.60;99.90;;;;;;4452943;32;20450;-69
2022/02/11 09:25:32;;;;;;;16.00;9.87;;;4.50;99.90;;;;;;4453599;32;20431;-69
2022/02/11 09:27:59;;;;;;;23.97;10.97;;;4.50;99.90;;;;;;4454626;32;20190;-69
2022/02/11 09:30:26;;;;;;;20.30;10.33;;;4.50;99.90;;;;;;4453384;32;20218;-70
2022/02/11 09:32:55;;;;;;;20.03;10.23;;;4.60;99.90;;;;;;4453309;32;20266;-69
2022/02/11 09:35:23;;;;;;;18.43;10.73;;;4.70;99.90;;;;;;4453955;32;20175;-70
2022/02/11 09:37:51;;;;;;;19.97;10.60;;;4.80;99.90;;;;;;4453837;32;20536;-69
2022/02/11 09:40:19;;;;;;;18.77;10.57;;;4.80;99.90;;;;;;4453996;32;20176;-70
2022/02/11 09:42:47;;;;;;;20.17;9.93;;;4.80;99.90;;;;;;4453183;32;20241;-70
2022/02/11 09:45:17;;;;;;;17.77;10.90;;;4.80;99.90;;;;;;4453340;32;20201;-70
2022/02/11 09:47:44;;;;;;;18.17;10.30;;;4.80;99.90;;;;;;4455146;32;20192;-70
2022/02/11 09:50:11;;;;;;;17.83;10.07;;;4.70;99.90;;;;;;4453810;32;20173;-69
2022/02/11 09:52:48;;;;;;;17.37;10.00;;;4.80;99.90;;;;;;4455112;32;20167;-68
2022/02/11 09:55:34;;;;;;;17.40;10.20;;;4.70;99.90;;;;;;4453770;32;20181;-68
2022/02/11 09:58:16;;;;;;;20.33;10.13;;;4.70;99.90;;;;;;4454878;32;20178;-68
2022/02/11 10:00:48;;;;;;;17.93;10.57;;;4.80;99.90;;;;;;4453538;32;20575;-68
2022/02/11 10:03:16;;;;;;;21.10;10.90;;;4.80;99.90;;;;;;4453535;32;20246;-68
2022/02/11 10:05:57;;;;;;;22.03;11.93;;;4.80;99.90;;;;;;4452768;32;20196;-69
2022/02/11 10:08:26;;;;;;;20.87;11.93;;;4.80;99.90;;;;;;4454416;32;20241;-70
2022/02/11 10:10:55;;;;;;;21.57;12.23;;;4.90;99.90;;;;;;4454694;32;20492;-69
2022/02/11 10:13:27;;;;;;;22.17;11.40;;;4.90;99.90;;;;;;4453996;32;20178;-70
2022/02/11 10:16:06;;;;;;;17.63;10.30;;;4.90;99.90;;;;;;4454397;32;20210;-68
2022/02/11 10:18:34;;;;;;;19.60;9.87;;;4.80;99.90;;;;;;4453150;32;20217;-69
2022/02/11 10:21:05;;;;;;;16.73;9.07;;;4.80;99.90;;;;;;4453146;32;20174;-70
2022/02/11 10:23:42;;;;;;;14.90;8.80;;;4.80;99.90;;;;;;4453223;32;20183;-70
2022/02/11 10:26:13;;;;;;;16.47;9.60;;;4.80;99.90;;;;;;4453085;32;20237;-69
2022/02/11 10:28:47;;;;;;;17.97;10.07;;;4.80;99.90;;;;;;4454365;32;20147;-69
2022/02/11 10:31:20;;;;;;;19.10;9.60;;;4.90;99.90;;;;;;4453229;32;20201;-69
2022/02/11 10:33:51;;;;;;;18.30;9.60;;;4.80;99.90;;;;;;4454674;32;20178;-69
2022/02/11 10:36:22;;;;;;;17.03;9.73;;;4.90;99.90;;;;;;4456728;32;20169;-68
2022/02/11 10:39:16;;;;;;;16.27;9.67;;;4.90;99.90;;;;;;4457302;32;20184;-69
2022/02/11 10:41:53;;;;;;;17.13;9.37;;;4.90;99.90;;;;;;4456656;32;20211;-69
2022/02/11 10:44:32;;;;;;;17.63;9.40;;;4.90;99.90;;;;;;4455785;32;20226;-70
2022/02/11 10:47:04;;;;;;;15.70;8.70;;;5.00;99.90;;;;;;4456226;32;20241;-70
2022/02/11 10:49:39;;;;;;;14.03;8.10;;;5.00;99.90;;;;;;4456031;32;20515;-69
2022/02/11 10:52:16;;;;;;;14.73;7.90;;;4.90;99.90;;;;;;4456871;32;20189;-68
2022/02/11 10:54:52;;;;;;;16.03;8.23;;;4.90;99.90;;;;;;4455825;32;20209;-70
2022/02/11 10:57:25;;;;;;;15.27;7.53;;;4.90;99.90;;;;;;4456264;32;20466;-69
2022/02/11 10:59:53;;;;;;;10.60;5.83;;;4.80;99.90;;;;;;4455403;32;20185;-68
2022/02/11 11:02:22;;;;;;;12.73;5.87;;;4.80;99.90;;;;;;4455211;32;20532;-68
2022/02/11 11:04:52;;;;;;;14.60;5.77;;;4.70;99.90;;;;;;4454437;32;20177;-68
2022/02/11 11:07:29;;;;;;;11.50;4.97;;;4.60;99.90;;;;;;4454837;32;20206;-68
2022/02/11 11:10:16;;;;;;;11.40;4.80;;;4.60;99.90;;;;;;4455319;32;20177;-68
2022/02/11 11:12:54;;;;;;;11.00;5.10;;;4.50;99.90;;;;;;4456390;32;20285;-68
2022/02/11 11:15:23;;;;;;;13.30;5.30;;;4.50;99.90;;;;;;4455027;32;20174;-68
2022/02/11 11:17:51;;;;;;;13.00;4.90;;;4.50;99.90;;;;;;4455302;32;20174;-68
2022/02/11 11:20:25;;;;;;;9.97;4.97;;;4.50;99.90;;;;;;4454425;32;20181;-69
2022/02/11 11:22:58;;;;;;;12.90;5.37;;;4.30;99.90;;;;;;4454488;32;20500;-68
2022/02/11 11:25:54;;;;;;;11.47;4.87;;;4.20;99.90;;;;;;4455755;32;20205;-69
2022/02/11 11:28:48;;;;;;;10.93;5.43;;;4.30;99.90;;;;;;4454999;32;20173;-69
2022/02/11 11:31:27;;;;;;;12.03;5.60;;;4.30;99.90;;;;;;4455349;32;20162;-69
2022/02/11 11:34:16;;;;;;;14.47;5.63;;;4.30;99.90;;;;;;4455710;32;20274;-68
2022/02/11 11:36:48;;;;;;;10.83;5.43;;;4.40;99.90;;;;;;4455568;32;20170;-68
2022/02/11 11:39:18;;;;;;;12.03;5.90;;;4.50;99.90;;;;;;4454530;32;20223;-68
2022/02/11 11:41:58;;;;;;;13.40;6.23;;;4.50;99.90;;;;;;4455774;32;20200;-68
2022/02/11 11:44:50;;;;;;;13.77;5.80;;;4.50;99.90;;;;;;4455446;32;20183;-68
2022/02/11 11:47:33;;;;;;;12.30;6.00;;;4.40;99.90;;;;;;4454169;32;20179;-68
2022/02/11 11:50:03;;;;;;;13.60;6.03;;;4.40;99.90;;;;;;4455864;32;20170;-68
2022/02/11 11:52:38;;;;;;;13.67;6.70;;;4.40;99.90;;;;;;4453859;32;20189;-68
2022/02/11 11:55:20;;;;;;;15.20;6.53;;;4.30;99.90;;;;;;4453592;32;20177;-68
2022/02/11 11:57:47;;;;;;;9.97;5.73;;;4.30;99.90;;;;;;4454123;32;20554;-68
2022/02/11 12:00:33;;;;;;;10.07;5.17;;;4.30;99.90;;;;;;4453598;32;20252;-68
2022/02/11 12:03:06;;;;;;;11.03;5.67;;;4.30;99.90;;;;;;4455187;32;20214;-69
2022/02/11 12:05:53;;;;;;;11.93;6.10;;;4.20;99.90;;;;;;4454842;32;20195;-68
2022/02/11 12:08:22;;;;;;;10.63;6.00;;;4.10;99.90;;;;;;4454117;32;20193;-68
2022/02/11 12:10:49;;;;;;;9.23;5.50;;;4.00;99.90;;;;;;4454605;32;20185;-69
2022/02/11 12:13:17;;;;;;;11.47;6.07;;;3.90;99.90;;;;;;4455533;32;20135;-68
2022/02/11 12:15:44;;;;;;;13.10;6.30;;;3.90;99.90;;;;;;4455974;32;20190;-68
2022/02/11 12:18:12;;;;;;;12.93;6.87;;;3.80;99.90;;;;;;4454781;32;20200;-68
2022/02/11 12:20:39;;;;;;;10.47;5.67;;;3.80;99.90;;;;;;4454570;32;20185;-68
2022/02/11 12:28:38;;;;;;;9.07;4.57;;;3.60;99.90;;;;;;4456285;32;20212;-68
2022/02/11 12:31:07;;;;;;;8.77;4.23;;;3.60;99.90;;;;;;4455490;32;20179;-68
2022/02/11 12:33:34;;;;;;;9.93;4.73;;;3.60;99.90;;;;;;4457122;32;20461;-68
2022/02/11 12:36:09;;;;;;;7.73;4.40;;;3.60;99.90;;;;;;4454173;32;20199;-68
2022/02/11 12:38:36;;;;;;;9.57;4.67;;;3.60;99.90;;;;;;4458548;32;20149;-68
2022/02/11 12:41:04;;;;;;;10.40;5.57;;;3.60;99.90;;;;;;4454388;32;20182;-68
2022/02/11 12:43:31;;;;;;;9.90;5.00;;;3.60;99.90;;;;;;4454573;32;20201;-66
2022/02/11 12:45:58;;;;;;;8.17;4.57;;;3.50;99.90;;;;;;4454027;32;20205;-67
2022/02/11 12:48:30;;;;;;;10.63;4.63;;;3.50;99.90;;;;;;4455334;32;20166;-67
2022/02/11 12:50:57;;;;;;;8.07;4.00;;;3.50;99.90;;;;;;4454909;32;20626;-66
2022/02/11 12:53:25;;;;;;;8.20;4.40;;;3.40;99.90;;;;;;4454634;32;20205;-67
2022/02/11 12:55:52;;;;;;;8.00;4.37;;;3.40;99.90;;;;;;4454325;32;20197;-67
2022/02/11 12:58:20;;;;;;;10.37;4.60;;;3.30;99.90;;;;;;4453621;32;20170;-67
2022/02/11 13:00:49;;;;;;;9.43;4.77;;;3.20;99.90;;;;;;4455568;32;20378;-66
2022/02/11 13:03:19;;;;;;;10.57;4.53;;;3.00;99.90;;;;;;4454987;32;20220;-67
2022/02/11 13:05:50;;;;;;;9.13;4.70;;;2.90;99.90;;;;;;4456355;32;20181;-67
2022/02/11 13:08:20;;;;;;;9.90;5.20;;;2.90;99.90;;;;;;4454105;32;20209;-67
2022/02/11 13:10:58;;;;;;;10.63;5.37;;;2.90;99.90;;;;;;4453161;32;20205;-67
2022/02/11 13:13:25;;;;;;;10.07;4.87;;;2.80;99.90;;;;;;4453561;32;20218;-67
2022/02/11 13:15:57;;;;;;;9.70;4.97;;;2.70;99.90;;;;;;4454342;32;20189;-66
2022/02/11 13:18:26;;;;;;;9.50;4.53;;;2.70;99.90;;;;;;4455471;32;20192;-66
2022/02/11 13:20:57;;;;;;;10.37;4.87;;;2.80;99.90;;;;;;4454557;32;20209;-66
2022/02/11 13:23:25;;;;;;;9.43;4.60;;;2.80;99.90;;;;;;4454612;32;20226;-66
2022/02/11 13:25:55;;;;;;;9.97;4.97;;;2.80;99.90;;;;;;4454633;32;20174;-66
2022/02/11 13:28:24;;;;;;;10.60;5.20;;;2.80;99.90;;;;;;4454646;32;20178;-67
2022/02/11 13:30:59;;;;;;;8.63;4.70;;;3.00;99.90;;;;;;4453446;32;20178;-67
2022/02/11 13:33:27;;;;;;;10.50;5.13;;;2.90;99.90;;;;;;4453279;32;20188;-66
2022/02/11 13:35:57;;;;;;;10.10;4.90;;;2.90;99.90;;;;;;4453061;32;20289;-67
2022/02/11 13:38:27;;;;;;;9.97;5.40;;;3.00;99.90;;;;;;4442295;32;20205;-66
2022/02/11 13:41:07;;;;;;;10.30;5.30;;;3.10;99.90;;;;;;4453161;32;20593;-66
2022/02/11 13:43:57;;;;;;;9.93;5.30;;;3.00;99.90;;;;;;4455210;32;20213;-67
2022/02/11 13:46:55;;;;;;;11.40;5.67;;;3.00;99.90;;;;;;4454420;32;20202;-66
2022/02/11 13:49:24;;;;;;;9.40;5.60;;;3.00;99.90;;;;;;4453517;32;20170;-66
2022/02/11 13:55:09;;;;;;;11.17;6.20;;;2.80;99.90;;;;;;4454603;32;20187;-66
2022/02/11 13:57:37;;;;;;;13.80;6.63;;;2.70;99.90;;;;;;4453963;32;20178;-66
2022/02/11 14:00:26;;;;;;;11.47;6.80;;;2.60;99.90;;;;;;4440234;32;20174;-67
2022/02/11 14:02:54;;;;;;;10.67;6.63;;;2.40;99.90;;;;;;4453395;32;20291;-66
2022/02/11 14:05:22;;;;;;;12.80;7.30;;;2.40;99.90;;;;;;4452863;32;20431;-66
2022/02/11 14:07:55;;;;;;;15.67;7.50;;;2.40;99.90;;;;;;4454741;32;20226;-66
2022/02/11 14:10:23;;;;;;;13.77;6.03;;;2.40;99.90;;;;;;4458209;32;20227;-66
2022/02/11 14:13:07;;;;;;;10.17;6.20;;;2.30;99.90;;;;;;4456103;32;20205;-66
2022/02/11 14:15:35;;;;;;;9.27;5.33;;;2.30;99.90;;;;;;4457454;32;20208;-66
2022/02/11 14:18:04;;;;;;;9.20;5.53;;;2.30;99.90;;;;;;4455765;32;20578;-66
2022/02/11 14:20:31;;;;;;;8.67;5.80;;;2.20;99.90;;;;;;4457100;32;20470;-67
2022/02/11 14:23:14;;;;;;;8.87;6.00;;;2.20;99.90;;;;;;4456048;32;20170;-67
2022/02/11 14:25:42;;;;;;;9.97;6.07;;;2.20;99.90;;;;;;4456143;32;20471;-66
2022/02/11 14:28:11;;;;;;;10.63;6.30;;;2.20;99.90;;;;;;4455990;32;20178;-66
2022/02/11 14:30:40;;;;;;;9.37;6.13;;;2.10;99.90;;;;;;4443481;32;20202;-66
2022/02/11 14:33:08;;;;;;;11.97;6.23;;;1.90;99.90;;;;;;4457618;32;20146;-66
2022/02/11 14:35:36;;;;;;;10.97;6.60;;;1.90;99.90;;;;;;4456324;32;20453;-65
2022/02/11 14:38:03;;;;;;;10.57;6.37;;;1.90;99.90;;;;;;4456072;32;20442;-67
2022/02/11 14:40:32;;;;;;;13.20;6.73;;;1.80;99.90;;;;;;4456007;32;20170;-66
2022/02/11 14:43:04;;;;;;;11.27;6.63;;;1.80;99.90;;;;;;4456494;32;20182;-66
2022/02/11 14:45:31;;;;;;;11.80;7.00;;;1.80;99.90;;;;;;4456263;32;20222;-66
2022/02/11 14:47:58;;;;;;;13.97;7.90;;;1.90;99.90;;;;;;4457059;32;20192;-66
2022/02/11 14:50:25;;;;;;;12.17;6.90;;;1.80;99.90;;;;;;4455840;32;20178;-66
2022/02/11 14:52:52;;;;;;;14.00;7.77;;;1.80;99.90;;;;;;4455586;32;20166;-66
2022/02/11 14:55:19;;;;;;;12.37;7.57;;;1.90;99.90;;;;;;4456252;32;20527;-66
2022/02/11 14:57:46;;;;;;;13.20;7.80;;;2.00;99.90;;;;;;4456048;32;20165;-66
2022/02/11 15:00:14;;;;;;;11.30;7.37;;;2.00;99.90;;;;;;4456908;32;20178;-65
2022/02/11 15:02:41;;;;;;;14.07;8.13;;;1.90;99.90;;;;;;4456189;32;20178;-67
2022/02/11 15:05:08;;;;;;;13.43;8.10;;;1.90;99.90;;;;;;4455023;32;20174;-66
2022/02/11 15:07:38;;;;;;;11.27;6.87;;;1.80;99.90;;;;;;4456918;32;20177;-66
2022/02/11 15:10:05;;;;;;;10.67;6.20;;;1.80;99.90;;;;;;4455396;32;20209;-66
2022/02/11 15:12:34;;;;;;;13.07;6.97;;;1.80;99.90;;;;;;4455459;32;20166;-66
2022/02/11 15:15:01;;;;;;;14.03;7.73;;;1.90;99.90;;;;;;4443045;32;20166;-66
2022/02/11 16:39:44;;;;;;;30.33;14.93;;;1.40;99.90;;;;;;4423978;32;20198;-66
2022/02/11 16:42:11;;;;;;;31.07;15.07;;;1.30;99.90;;;;;;4427388;32;20178;-66
2022/02/11 16:44:39;;;;;;;32.57;14.77;;;1.40;99.90;;;;;;4441222;32;20203;-66
2022/02/11 16:47:06;;;;;;;35.30;16.07;;;1.50;99.90;;;;;;4426562;32;20211;-66
2022/02/11 16:49:33;;;;;;;35.80;16.50;;;1.40;99.90;;;;;;4426240;32;20190;-66
2022/02/11 16:52:00;;;;;;;33.20;14.53;;;1.50;99.90;;;;;;4426422;32;20245;-66
2022/02/11 16:54:27;;;;;;;32.00;15.37;;;1.40;99.90;;;;;;4426030;32;20170;-66
2022/02/11 16:56:54;;;;;;;27.37;14.00;;;1.40;99.90;;;;;;4425650;32;20197;-66
2022/02/11 16:59:21;;;;;;;26.57;14.00;;;1.50;99.90;;;;;;4426722;32;20269;-66
2022/02/11 17:01:48;;;;;;;29.27;14.33;;;1.50;99.90;;;;;;4439776;32;20178;-66
2022/02/11 17:04:15;;;;;;;28.27;14.90;;;1.50;99.90;;;;;;4440562;32;20387;-66
2022/02/11 17:06:42;;;;;;;27.33;13.97;;;1.50;99.90;;;;;;4425911;32;20166;-66
2022/02/11 17:09:09;;;;;;;26.00;13.97;;;1.50;99.90;;;;;;4425525;32;20194;-66
2022/02/11 17:11:38;;;;;;;27.17;14.23;;;1.50;99.90;;;;;;4426433;32;20243;-66
2022/02/11 17:14:05;;;;;;;27.23;13.63;;;1.60;99.90;;;;;;4446196;32;20149;-66
2022/02/11 17:16:33;;;;;;;28.30;14.27;;;1.60;99.90;;;;;;4440183;32;20210;-66
2022/02/11 17:19:00;;;;;;;25.70;13.87;;;1.60;99.90;;;;;;4439856;32;20443;-66
2022/02/11 17:21:27;;;;;;;27.07;14.17;;;1.60;99.90;;;;;;4440379;32;20225;-66
2022/02/11 17:23:54;;;;;;;27.03;14.63;;;1.60;99.90;;;;;;4450683;32;20248;-66
2022/02/11 17:26:21;;;;;;;26.77;13.80;;;1.60;99.90;;;;;;4440767;32;20185;-66
2022/02/11 17:28:48;;;;;;;31.40;15.27;;;1.60;99.90;;;;;;4437945;32;20166;-66
2022/02/11 17:31:15;;;;;;;32.77;15.27;;;1.50;99.90;;;;;;4436237;32;20280;-66
2022/02/11 17:33:44;;;;;;;30.40;15.60;;;1.60;99.90;;;;;;4438350;32;20206;-66
2022/02/11 17:36:11;;;;;;;31.27;16.03;;;1.50;99.90;;;;;;4432254;32;20226;-66
2022/02/11 17:38:38;;;;;;;31.73;16.17;;;1.60;99.90;;;;;;4423577;32;20142;-66
2022/02/11 17:41:05;;;;;;;28.67;15.57;;;1.50;99.90;;;;;;4425417;32;20178;-66
2022/02/11 17:43:32;;;;;;;30.33;16.37;;;1.50;99.90;;;;;;4422376;32;20167;-66
2022/02/11 17:46:00;;;;;;;29.77;15.60;;;1.40;99.90;;;;;;4423046;32;20615;-66
2022/02/11 17:48:29;;;;;;;33.17;16.40;;;1.40;99.90;;;;;;4435161;32;20375;-66
2022/02/11 17:50:56;;;;;;;31.47;16.57;;;1.30;99.90;;;;;;4437856;32;20570;-66
2022/02/11 17:53:23;;;;;;;32.03;16.83;;;1.30;99.90;;;;;;4437727;32;20415;-66
2022/02/11 17:55:50;;;;;;;38.63;18.23;;;1.40;99.90;;;;;;4438349;32;20567;-66
2022/02/11 17:58:17;;;;;;;35.00;17.77;;;1.40;99.90;;;;;;4439726;32;20173;-66
2022/02/11 18:00:45;;;;;;;35.80;17.33;;;1.50;99.90;;;;;;4438351;32;20591;-66
2022/02/11 18:03:12;;;;;;;33.13;16.90;;;1.50;99.90;;;;;;4437967;32;20225;-66
2022/02/11 18:05:39;;;;;;;38.67;18.27;;;1.50;99.90;;;;;;4438056;32;20578;-66
2022/02/11 18:08:07;;;;;;;34.00;17.33;;;1.50;99.90;;;;;;4438954;32;20189;-66
2022/02/11 18:10:34;;;;;;;33.87;16.30;;;1.50;99.90;;;;;;4438016;32;20182;-66